createdAt,value
2022-12-02T00:00:26.080Z,5.05
2022-12-02T00:02:58.251Z,5.04
2022-12-02T00:05:30.994Z,5.04
2022-12-02T00:08:02.932Z,4.99
2022-12-02T00:10:34.108Z,4.94
2022-12-02T00:13:28.862Z,4.90
2022-12-02T00:16:03.743Z,4.85
2022-12-02T00:18:31.642Z,4.82
2022-12-02T00:20:59.246Z,4.82
2022-12-02T00:23:26.652Z,4.84
2022-12-02T00:25:54.832Z,4.87
2022-12-02T00:28:22.491Z,4.90
2022-12-02T00:30:49.935Z,4.99
2022-12-02T00:33:18.768Z,5.08
2022-12-02T00:35:46.978Z,5.17
2022-12-02T00:38:15.128Z,5.23
2022-12-02T00:40:42.868Z,5.30
2022-12-02T00:43:30.409Z,5.36
2022-12-02T00:46:16.861Z,5.42
2022-12-02T00:48:44.277Z,5.46
2022-12-02T00:51:11.928Z,5.48
2022-12-02T00:53:39.689Z,5.50
2022-12-02T00:56:07.988Z,5.50
2022-12-02T00:58:35.988Z,5.50
2022-12-02T01:01:03.983Z,5.51
2022-12-02T01:03:31.945Z,5.50
2022-12-02T01:06:02.128Z,5.48
2022-12-02T01:08:30.017Z,5.45
2022-12-02T01:10:58.278Z,5.45
2022-12-02T01:13:27.789Z,5.42
2022-12-02T01:15:55.585Z,5.39
2022-12-02T01:18:23.651Z,5.35
2022-12-02T01:20:51.343Z,5.30
2022-12-02T01:23:19.152Z,5.27
2022-12-02T01:25:48.066Z,5.24
2022-12-02T01:28:17.529Z,5.20
2022-12-02T01:30:46.178Z,5.16
2022-12-02T01:33:13.734Z,5.14
2022-12-02T01:35:41.641Z,5.11
2022-12-02T01:38:09.156Z,5.09
2022-12-02T01:40:36.851Z,5.06
2022-12-02T01:43:04.422Z,5.06
2022-12-02T01:45:32.365Z,5.06
2022-12-02T01:48:01.602Z,5.09
2022-12-02T01:50:34.728Z,5.14
2022-12-02T01:53:04.367Z,5.17
2022-12-02T01:55:35.383Z,5.22
2022-12-02T01:58:05.948Z,5.26
2022-12-02T02:00:37.431Z,5.28
2022-12-02T02:03:06.326Z,5.33
2022-12-02T02:05:40.650Z,5.38
2022-12-02T02:08:12.384Z,5.42
2022-12-02T02:10:44.463Z,5.45
2022-12-02T02:13:17.437Z,5.45
2022-12-02T02:15:47.461Z,5.45
2022-12-02T02:18:18.003Z,5.46
2022-12-02T02:20:46.426Z,5.48
2022-12-02T02:23:21.489Z,5.45
2022-12-02T02:25:54.066Z,5.43
2022-12-02T02:28:24.888Z,5.40
2022-12-02T02:30:56.398Z,5.39
2022-12-02T02:33:29.440Z,5.35
2022-12-02T02:35:57.705Z,5.32
2022-12-02T02:38:28.376Z,5.32
2022-12-02T02:40:57.692Z,5.30
2022-12-02T02:43:28.503Z,5.26
2022-12-02T02:45:58.970Z,5.23
2022-12-02T02:48:29.796Z,5.23
2022-12-02T02:50:57.949Z,5.20
2022-12-02T02:53:26.877Z,5.18
2022-12-02T02:55:55.639Z,5.17
2022-12-02T02:58:25.714Z,5.17
2022-12-02T03:01:05.778Z,5.15
2022-12-02T03:03:41.412Z,5.13
2022-12-02T03:06:11.213Z,5.11
2022-12-02T03:08:43.552Z,5.08
2022-12-02T03:11:12.119Z,5.06
2022-12-02T03:13:41.693Z,5.09
2022-12-02T03:16:13.503Z,5.12
2022-12-02T03:18:44.545Z,5.17
2022-12-02T03:21:16.847Z,5.23
2022-12-02T03:23:47.392Z,5.32
2022-12-02T03:26:18.050Z,5.40
2022-12-02T03:28:57.867Z,5.47
2022-12-02T03:31:33.412Z,5.52
2022-12-02T03:34:02.154Z,5.57
2022-12-02T03:36:31.933Z,5.64
2022-12-02T03:39:02.094Z,5.67
2022-12-02T03:41:31.206Z,5.64
2022-12-02T03:44:00.592Z,5.59
2022-12-02T03:46:34.271Z,5.54
2022-12-02T03:49:07.660Z,5.52
2022-12-02T03:51:38.149Z,5.50
2022-12-02T03:54:06.544Z,5.49
2022-12-02T03:56:40.478Z,5.45
2022-12-02T03:59:08.761Z,5.41
2022-12-02T04:01:36.265Z,5.40
2022-12-02T04:04:04.087Z,5.40
2022-12-02T04:06:31.805Z,5.36
2022-12-02T04:08:59.708Z,5.31
2022-12-02T04:11:27.321Z,5.28
2022-12-02T04:13:55.241Z,5.23
2022-12-02T04:16:22.874Z,5.20
2022-12-02T04:18:51.019Z,5.16
2022-12-02T04:21:18.652Z,5.13
2022-12-02T04:23:45.975Z,5.10
2022-12-02T04:26:13.445Z,5.08
2022-12-02T04:28:41.113Z,5.06
2022-12-02T04:31:08.930Z,5.05
2022-12-02T04:33:36.507Z,5.04
2022-12-02T04:36:05.424Z,5.04
2022-12-02T04:38:33.230Z,5.06
2022-12-02T04:41:00.804Z,5.08
2022-12-02T04:43:28.546Z,5.12
2022-12-02T04:45:56.459Z,5.14
2022-12-02T04:48:24.449Z,5.18
2022-12-02T04:50:51.962Z,5.21
2022-12-02T04:53:19.466Z,5.23
2022-12-02T04:55:47.064Z,5.26
2022-12-02T04:58:15.178Z,5.28
2022-12-02T05:00:42.816Z,5.32
2022-12-02T05:03:10.531Z,5.35
2022-12-02T05:05:38.146Z,5.37
2022-12-02T05:08:05.704Z,5.37
2022-12-02T05:10:33.395Z,5.36
2022-12-02T05:13:00.998Z,5.37
2022-12-02T05:15:28.851Z,5.36
2022-12-02T05:17:56.361Z,5.35
2022-12-02T05:20:24.038Z,5.33
2022-12-02T05:22:51.496Z,5.30
2022-12-02T05:25:19.153Z,5.29
2022-12-02T05:27:46.861Z,5.34
2022-12-02T05:30:14.991Z,5.35
2022-12-02T05:32:42.550Z,5.35
2022-12-02T05:35:10.263Z,5.32
2022-12-02T05:37:38.096Z,5.30
2022-12-02T05:40:07.687Z,5.26
2022-12-02T05:42:35.563Z,5.22
2022-12-02T05:45:19.817Z,5.19
2022-12-02T05:47:52.820Z,5.15
2022-12-02T05:50:21.432Z,5.11
2022-12-02T05:52:51.141Z,5.07
2022-12-02T05:55:21.054Z,5.02
2022-12-02T05:57:49.528Z,4.99
2022-12-02T06:00:21.346Z,4.96
2022-12-02T06:03:01.594Z,4.99
2022-12-02T06:05:42.724Z,4.99
2022-12-02T06:08:26.938Z,5.02
2022-12-02T06:10:59.891Z,5.06
2022-12-02T06:13:32.110Z,5.09
2022-12-02T06:16:00.648Z,5.15
2022-12-02T06:18:32.814Z,5.23
2022-12-02T06:21:03.725Z,5.32
2022-12-02T06:23:33.102Z,5.40
2022-12-02T06:26:00.859Z,5.45
2022-12-02T06:28:37.975Z,5.49
2022-12-02T06:31:22.763Z,5.52
2022-12-02T06:33:53.099Z,5.52
2022-12-02T06:36:29.143Z,5.52
2022-12-02T06:39:04.670Z,5.51
2022-12-02T06:41:36.670Z,5.49
2022-12-02T06:44:43.792Z,5.45
2022-12-02T06:47:37.551Z,5.41
2022-12-02T06:50:19.618Z,5.35
2022-12-02T06:52:47.499Z,5.33
2022-12-02T06:55:32.095Z,5.32
2022-12-02T06:58:29.584Z,5.31
2022-12-02T07:01:17.405Z,5.29
2022-12-02T07:03:50.741Z,5.28
2022-12-02T07:06:27.366Z,5.25
2022-12-02T07:09:05.655Z,5.24
2022-12-02T07:11:49.418Z,5.22
2022-12-02T07:14:49.069Z,5.23
2022-12-02T07:17:28.533Z,5.21
2022-12-02T07:20:04.463Z,5.24
2022-12-02T07:22:43.476Z,5.25
2022-12-02T07:25:32.000Z,5.27
2022-12-02T07:28:01.973Z,5.31
2022-12-02T07:30:36.904Z,5.37
2022-12-02T07:33:04.515Z,5.44
2022-12-02T07:35:32.365Z,5.54
2022-12-02T07:37:59.650Z,5.62
2022-12-02T07:40:28.074Z,5.71
2022-12-02T07:42:55.642Z,5.81
2022-12-02T07:45:23.168Z,5.91
2022-12-02T07:47:50.944Z,6.01
2022-12-02T07:50:18.912Z,6.06
2022-12-02T07:52:46.421Z,6.10
2022-12-02T07:55:14.097Z,6.14
2022-12-02T07:57:41.691Z,6.18
2022-12-02T08:00:11.129Z,6.21
2022-12-02T08:02:41.807Z,6.27
2022-12-02T08:05:11.625Z,6.32
2022-12-02T08:07:39.630Z,6.33
2022-12-02T08:10:08.789Z,6.35
2022-12-02T08:12:36.324Z,6.36
2022-12-02T08:15:06.340Z,6.51
2022-12-02T08:17:34.676Z,6.56
2022-12-02T08:20:05.770Z,6.52
2022-12-02T08:22:33.333Z,6.47
2022-12-02T08:25:01.096Z,6.41
2022-12-02T08:27:28.648Z,6.39
2022-12-02T08:29:56.020Z,6.36
2022-12-02T08:32:23.591Z,6.33
2022-12-02T08:34:51.344Z,6.32
2022-12-02T08:37:19.440Z,6.35
2022-12-02T08:39:47.006Z,6.33
2022-12-02T08:42:14.770Z,6.30
2022-12-02T08:44:42.372Z,6.29
2022-12-02T08:47:09.944Z,6.28
2022-12-02T08:49:37.676Z,6.34
2022-12-02T08:52:05.247Z,6.44
2022-12-02T08:54:32.991Z,6.55
2022-12-02T08:57:00.582Z,6.66
2022-12-02T08:59:28.187Z,6.78
2022-12-02T09:01:55.772Z,6.90
2022-12-02T09:04:23.449Z,7.02
2022-12-02T09:06:53.126Z,7.08
2022-12-02T09:09:20.944Z,7.17
2022-12-02T09:11:48.785Z,7.20
2022-12-02T09:14:16.787Z,7.25
2022-12-02T09:16:44.440Z,7.25
2022-12-02T09:19:13.640Z,7.26
2022-12-02T09:21:41.585Z,7.29
2022-12-02T09:24:09.022Z,7.29
2022-12-02T09:26:36.517Z,7.25
2022-12-02T09:29:04.007Z,7.24
2022-12-02T09:31:32.040Z,7.23
2022-12-02T09:33:59.610Z,7.24
2022-12-02T09:36:27.285Z,7.27
2022-12-02T09:38:54.951Z,7.34
2022-12-02T09:41:22.687Z,7.38
2022-12-02T09:43:50.591Z,7.43
2022-12-02T09:46:24.327Z,7.48
2022-12-02T09:48:48.716Z,7.56
2022-12-02T09:51:16.426Z,7.60
2022-12-02T09:53:46.161Z,7.66
2022-12-02T09:56:18.520Z,7.72
2022-12-02T09:58:53.538Z,7.75
2022-12-02T10:01:26.047Z,7.80
2022-12-02T10:03:54.236Z,7.79
2022-12-02T10:06:28.063Z,7.82
2022-12-02T10:08:57.603Z,7.81
2022-12-02T10:11:34.717Z,7.76
2022-12-02T10:14:04.575Z,7.71
2022-12-02T10:16:34.179Z,7.66
2022-12-02T10:19:04.331Z,7.64
2022-12-02T10:21:32.375Z,7.60
2022-12-02T10:24:04.791Z,7.62
2022-12-02T10:26:49.341Z,7.65
2022-12-02T10:29:29.902Z,7.68
2022-12-02T10:32:02.795Z,7.76
2022-12-02T10:34:33.374Z,7.79
2022-12-02T10:37:24.097Z,7.83
2022-12-02T10:40:15.214Z,7.86
2022-12-02T10:42:44.259Z,7.93
2022-12-02T10:45:24.625Z,7.99
2022-12-02T10:47:57.797Z,8.03
2022-12-02T10:50:25.288Z,8.01
2022-12-02T10:52:58.152Z,8.00
2022-12-02T10:55:28.637Z,8.02
2022-12-02T10:57:56.391Z,8.02
2022-12-02T11:00:26.544Z,8.02
2022-12-02T11:02:59.452Z,8.07
2022-12-02T11:05:35.203Z,8.01
2022-12-02T11:08:07.665Z,7.93
2022-12-02T11:10:40.295Z,7.89
2022-12-02T11:13:19.845Z,7.89
2022-12-02T11:15:51.156Z,7.87
2022-12-02T11:18:42.295Z,7.84
2022-12-02T11:21:30.661Z,7.83
2022-12-02T11:24:26.203Z,7.80
2022-12-02T11:27:05.202Z,7.70
2022-12-02T11:29:41.127Z,7.64
2022-12-02T11:32:38.099Z,7.58
2022-12-02T11:35:18.670Z,7.56
2022-12-02T11:37:47.702Z,7.53
2022-12-02T11:40:22.142Z,7.52
2022-12-02T11:42:52.595Z,7.53
2022-12-02T11:45:25.526Z,7.60
2022-12-02T11:47:59.346Z,7.65
2022-12-02T11:50:39.740Z,7.74
2022-12-02T11:53:20.531Z,7.84
2022-12-02T11:55:51.704Z,7.93
2022-12-02T11:58:29.311Z,8.00
2022-12-02T12:01:15.466Z,8.05
2022-12-02T12:03:47.626Z,8.08
2022-12-02T12:06:25.926Z,8.08
2022-12-02T12:08:56.580Z,8.09
2022-12-02T12:11:30.031Z,8.09
2022-12-02T12:14:06.836Z,8.07
2022-12-02T12:16:38.375Z,8.04
2022-12-02T12:19:20.778Z,7.98
2022-12-02T12:21:52.240Z,7.93
2022-12-02T12:24:25.359Z,7.97
2022-12-02T12:27:04.351Z,8.04
2022-12-02T12:29:35.311Z,8.04
2022-12-02T12:32:04.748Z,8.00
2022-12-02T12:34:33.396Z,7.99
2022-12-02T12:37:01.262Z,7.94
2022-12-02T12:39:28.876Z,7.92
2022-12-02T12:42:01.144Z,7.90
2022-12-02T12:44:30.009Z,7.86
2022-12-02T12:46:55.746Z,7.85
2022-12-02T12:49:24.491Z,7.82
2022-12-02T12:51:51.957Z,7.81
2022-12-02T12:54:19.809Z,7.79
2022-12-02T12:56:47.296Z,7.75
2022-12-02T12:59:15.094Z,7.72
2022-12-02T13:01:44.319Z,7.68
2022-12-02T13:04:12.983Z,7.67
2022-12-02T13:06:42.976Z,7.66
2022-12-02T13:09:12.800Z,7.64
2022-12-02T13:11:40.971Z,7.62
2022-12-02T13:14:08.807Z,7.59
2022-12-02T13:16:36.950Z,7.58
2022-12-02T13:19:06.277Z,7.56
2022-12-02T13:21:34.401Z,7.59
2022-12-02T13:24:03.614Z,7.63
2022-12-02T13:26:31.715Z,7.67
2022-12-02T13:28:59.275Z,7.72
2022-12-02T13:31:27.023Z,7.78
2022-12-02T13:33:54.513Z,7.84
2022-12-02T13:36:22.203Z,7.91
2022-12-02T13:38:49.879Z,7.97
2022-12-02T13:41:17.487Z,8.03
2022-12-02T13:43:44.860Z,8.03
2022-12-02T13:46:12.506Z,8.04
2022-12-02T13:48:40.221Z,8.04
2022-12-02T13:51:07.788Z,8.04
2022-12-02T13:53:35.434Z,8.02
2022-12-02T13:56:03.247Z,8.01
2022-12-02T13:58:30.596Z,7.98
2022-12-02T14:00:58.197Z,7.94
2022-12-02T14:03:25.829Z,7.89
2022-12-02T14:05:53.446Z,7.86
2022-12-02T14:08:21.257Z,7.82
2022-12-02T14:10:49.098Z,7.77
2022-12-02T14:13:20.995Z,7.72
2022-12-02T14:15:46.784Z,7.67
2022-12-02T14:18:14.299Z,7.63
2022-12-02T14:20:41.720Z,7.60
2022-12-02T14:23:11.128Z,7.58
2022-12-02T14:25:38.924Z,7.57
2022-12-02T14:28:06.452Z,7.54
2022-12-02T14:30:34.582Z,7.50
2022-12-02T14:33:01.949Z,7.46
2022-12-02T14:35:29.274Z,7.43
2022-12-02T14:37:56.840Z,7.40
2022-12-02T14:40:24.728Z,7.36
2022-12-02T14:42:53.377Z,7.33
2022-12-02T14:45:21.111Z,7.29
2022-12-02T14:47:49.003Z,7.26
2022-12-02T14:50:16.783Z,7.23
2022-12-02T14:52:44.366Z,7.23
2022-12-02T14:55:11.905Z,7.25
2022-12-02T14:57:39.570Z,7.27
2022-12-02T15:00:10.876Z,7.29
2022-12-02T15:02:39.770Z,7.33
2022-12-02T15:05:14.527Z,7.36
2022-12-02T15:07:38.992Z,7.39
2022-12-02T15:10:10.799Z,7.44
2022-12-02T15:12:38.367Z,7.47
2022-12-02T15:15:36.293Z,7.48
2022-12-02T15:17:38.813Z,7.49
2022-12-02T15:20:09.922Z,7.49
2022-12-02T15:22:37.532Z,7.47
2022-12-02T15:25:06.597Z,7.45
2022-12-02T15:27:35.137Z,7.45
2022-12-02T15:30:03.616Z,7.42
2022-12-02T15:32:31.199Z,7.40
2022-12-02T15:34:58.756Z,7.37
2022-12-02T15:37:26.355Z,7.32
2022-12-02T15:39:54.103Z,7.27
2022-12-02T15:42:21.717Z,7.20
2022-12-02T15:44:49.458Z,7.12
2022-12-02T15:47:17.159Z,7.02
2022-12-02T15:49:44.564Z,6.96
2022-12-02T15:52:12.157Z,6.90
2022-12-02T15:54:39.832Z,6.84
2022-12-02T15:57:07.373Z,6.80
2022-12-02T15:59:34.927Z,6.77
2022-12-02T16:02:02.638Z,6.73
2022-12-02T16:04:31.932Z,6.70
2022-12-02T16:06:59.622Z,6.67
2022-12-02T16:09:27.619Z,6.64
2022-12-02T16:11:55.059Z,6.59
2022-12-02T16:14:22.730Z,6.55
2022-12-02T16:16:50.529Z,6.52
2022-12-02T16:19:19.109Z,6.53
2022-12-02T16:21:46.609Z,6.55
2022-12-02T16:24:14.043Z,6.58
2022-12-02T16:26:41.590Z,6.59
2022-12-02T16:29:09.349Z,6.62
2022-12-02T16:31:37.017Z,6.64
2022-12-02T16:34:05.298Z,6.67
2022-12-02T16:36:32.926Z,6.72
2022-12-02T16:39:00.564Z,6.76
2022-12-02T16:41:28.771Z,6.78
2022-12-02T16:43:56.444Z,6.80
2022-12-02T16:46:24.019Z,6.79
2022-12-02T16:48:51.668Z,6.82
2022-12-02T16:51:19.228Z,6.80
2022-12-02T16:53:46.827Z,6.80
2022-12-02T16:56:14.362Z,6.79
2022-12-02T16:58:42.697Z,6.74
2022-12-02T17:01:10.452Z,6.72
2022-12-02T17:03:38.146Z,6.68
2022-12-02T17:06:07.044Z,6.63
2022-12-02T17:08:34.611Z,6.59
2022-12-02T17:11:02.126Z,6.57
2022-12-02T17:13:31.398Z,6.52
2022-12-02T17:15:59.042Z,6.48
2022-12-02T17:18:26.795Z,6.43
2022-12-02T17:20:55.808Z,6.40
2022-12-02T17:23:23.646Z,6.37
2022-12-02T17:25:52.750Z,6.34
2022-12-02T17:28:21.799Z,6.31
2022-12-02T17:30:49.250Z,6.29
2022-12-02T17:33:16.827Z,6.26
2022-12-02T17:35:44.808Z,6.24
2022-12-02T17:38:12.353Z,6.22
2022-12-02T17:40:39.992Z,6.19
2022-12-02T17:43:07.620Z,6.15
2022-12-02T17:45:35.179Z,6.13
2022-12-02T17:48:03.223Z,6.14
2022-12-02T17:50:30.922Z,6.17
2022-12-02T17:52:58.692Z,6.21
2022-12-02T17:55:26.273Z,6.25
2022-12-02T17:57:53.766Z,6.29
2022-12-02T18:00:21.749Z,6.32
2022-12-02T18:02:49.399Z,6.37
2022-12-02T18:05:16.894Z,6.38
2022-12-02T18:07:44.973Z,6.44
2022-12-02T18:10:13.044Z,6.47
2022-12-02T18:12:40.618Z,6.48
2022-12-02T18:15:14.752Z,6.49
2022-12-02T18:17:42.537Z,6.49
2022-12-02T18:20:11.608Z,6.49
2022-12-02T18:22:42.073Z,6.45
2022-12-02T18:25:09.821Z,6.43
2022-12-02T18:27:37.709Z,6.38
2022-12-02T18:30:08.968Z,6.35
2022-12-02T18:32:36.083Z,6.29
2022-12-02T18:35:05.913Z,6.27
2022-12-02T18:37:33.384Z,6.23
2022-12-02T18:40:04.250Z,6.18
2022-12-02T18:42:33.242Z,6.14
2022-12-02T18:45:00.733Z,6.12
2022-12-02T18:47:28.618Z,6.06
2022-12-02T18:49:58.579Z,6.04
2022-12-02T18:52:26.020Z,6.02
2022-12-02T18:54:53.881Z,5.98
2022-12-02T18:57:21.695Z,5.95
2022-12-02T18:59:49.435Z,5.93
2022-12-02T19:02:17.243Z,5.92
2022-12-02T19:04:47.042Z,5.89
2022-12-02T19:07:18.380Z,5.86
2022-12-02T19:09:51.605Z,5.85
2022-12-02T19:12:15.883Z,5.83
2022-12-02T19:14:43.441Z,5.87
2022-12-02T19:17:11.285Z,5.90
2022-12-02T19:19:38.625Z,5.92
2022-12-02T19:22:06.429Z,5.97
2022-12-02T19:24:34.001Z,6.00
2022-12-02T19:27:01.680Z,6.07
2022-12-02T19:29:29.274Z,6.11
2022-12-02T19:31:57.202Z,6.17
2022-12-02T19:34:24.735Z,6.22
2022-12-02T19:36:52.361Z,6.22
2022-12-02T19:39:20.022Z,6.24
2022-12-02T19:41:47.556Z,6.23
2022-12-02T19:44:14.892Z,6.19
2022-12-02T19:46:42.508Z,6.15
2022-12-02T19:49:10.586Z,6.14
2022-12-02T19:51:38.418Z,6.11
2022-12-02T19:54:06.228Z,6.09
2022-12-02T19:56:33.916Z,6.03
2022-12-02T19:59:01.667Z,6.03
2022-12-02T20:01:33.024Z,6.01
2022-12-02T20:04:19.288Z,6.00
2022-12-02T20:06:29.889Z,5.99
2022-12-02T20:08:57.658Z,5.98
2022-12-02T20:11:25.293Z,5.95
2022-12-02T20:13:52.735Z,5.93
2022-12-02T20:16:20.034Z,5.90
2022-12-02T20:18:47.798Z,5.85
2022-12-02T20:21:15.408Z,5.81
2022-12-02T20:23:43.077Z,5.77
2022-12-02T20:26:11.145Z,5.74
2022-12-02T20:28:38.671Z,5.72
2022-12-02T20:31:06.380Z,5.70
2022-12-02T20:33:34.286Z,5.68
2022-12-02T20:36:01.896Z,5.66
2022-12-02T20:38:31.117Z,5.66
2022-12-02T20:40:58.687Z,5.68
2022-12-02T20:43:26.076Z,5.73
2022-12-02T20:45:53.565Z,5.77
2022-12-02T20:48:21.018Z,5.81
2022-12-02T20:50:48.539Z,5.83
2022-12-02T20:53:16.049Z,5.88
2022-12-02T20:55:43.492Z,5.91
2022-12-02T20:58:11.182Z,5.91
2022-12-02T21:00:38.633Z,5.94
2022-12-02T21:03:06.330Z,5.95
2022-12-02T21:05:35.775Z,5.96
2022-12-02T21:08:03.767Z,5.97
2022-12-02T21:10:32.068Z,5.98
2022-12-02T21:13:00.682Z,5.96
2022-12-02T21:15:30.467Z,5.91
2022-12-02T21:17:58.283Z,5.88
2022-12-02T21:20:26.207Z,5.83
2022-12-02T21:22:53.795Z,5.80
2022-12-02T21:25:21.578Z,5.74
2022-12-02T21:27:49.223Z,5.66
2022-12-02T21:30:17.035Z,5.61
2022-12-02T21:32:44.603Z,5.53
2022-12-02T21:35:12.175Z,5.49
2022-12-02T21:37:39.903Z,5.44
2022-12-02T21:40:11.068Z,5.41
2022-12-02T21:42:38.905Z,5.37
2022-12-02T21:45:08.558Z,5.33
2022-12-02T21:47:36.262Z,5.30
2022-12-02T21:50:05.545Z,5.24
2022-12-02T21:52:33.114Z,5.18
2022-12-02T21:55:00.966Z,5.14
2022-12-02T21:57:28.705Z,5.08
2022-12-02T21:59:56.469Z,5.04
2022-12-02T22:02:25.826Z,4.99
2022-12-02T22:04:54.416Z,4.95
2022-12-02T22:07:39.964Z,4.91
2022-12-02T22:10:15.490Z,4.89
2022-12-02T22:12:44.189Z,4.89
2022-12-02T22:15:13.226Z,4.90
2022-12-02T22:17:41.060Z,4.88
2022-12-02T22:20:10.341Z,4.91
2022-12-02T22:22:37.820Z,4.94
2022-12-02T22:25:07.910Z,4.96
2022-12-02T22:27:35.568Z,4.96
2022-12-02T22:30:06.317Z,4.97
2022-12-02T22:32:35.095Z,4.95
2022-12-02T22:35:04.502Z,4.93
2022-12-02T22:37:32.082Z,4.91
2022-12-02T22:39:59.715Z,4.89
2022-12-02T22:42:27.352Z,4.88
2022-12-02T22:44:55.219Z,4.85
2022-12-02T22:47:23.316Z,4.84
2022-12-02T22:49:50.813Z,4.81
2022-12-02T22:52:18.614Z,4.81
2022-12-02T22:54:46.302Z,4.79
2022-12-02T22:57:13.931Z,4.76
2022-12-02T22:59:41.585Z,4.72
2022-12-02T23:02:13.891Z,4.70
2022-12-02T23:04:38.952Z,4.67
2022-12-02T23:07:07.062Z,4.64
2022-12-02T23:09:35.157Z,4.65
2022-12-02T23:12:03.065Z,4.64
2022-12-02T23:14:30.874Z,4.62
2022-12-02T23:16:58.559Z,4.60
2022-12-02T23:19:25.860Z,4.59
2022-12-02T23:21:53.352Z,4.58
2022-12-02T23:24:20.963Z,4.58
2022-12-02T23:26:48.478Z,4.56
2022-12-02T23:29:17.154Z,4.58
2022-12-02T23:31:44.764Z,4.61
2022-12-02T23:34:13.359Z,4.68
2022-12-02T23:36:40.928Z,4.74
2022-12-02T23:39:08.409Z,4.81
2022-12-02T23:41:36.360Z,4.88
2022-12-02T23:44:04.700Z,4.97
2022-12-02T23:46:33.775Z,5.04
2022-12-02T23:49:01.356Z,5.11
2022-12-02T23:51:28.945Z,5.20
2022-12-02T23:53:56.533Z,5.26
2022-12-02T23:56:24.193Z,5.31
2022-12-02T23:58:52.022Z,5.36
